Time;durP1;ratioP1;P1;durP2;ratioP2;P2;SDS_P1;SDS_P2;PMS_P1;PMS_P2;Temp;Humidity;BMP_temperature;BMP_pressure;BME280_temperature;BME280_humidity;BME280_pressure;Samples;Min_cycle;Max_cycle;Signal;HPM_P1;HPM_P2
2023/07/24 00:01:42;;;;;;;;;;;20.30;87.00;;;;;;5111486;28;19911;-68
2023/07/24 00:04:07;;;;;;;;;;;20.30;85.80;;;;;;5104430;28;19912;-68
2023/07/24 00:06:33;;;;;;;;;;;20.20;86.20;;;;;;5071869;28;20304;-68
2023/07/24 00:08:58;;;;;;;;;;;20.20;86.00;;;;;;5090720;28;20015;-68
2023/07/24 00:11:24;;;;;;;;;;;20.20;85.70;;;;;;5090641;28;19915;-68
2023/07/24 00:13:49;;;;;;;;;;;20.20;85.40;;;;;;5098162;28;19912;-68
2023/07/24 00:16:15;;;;;;;;;;;20.20;85.50;;;;;;5090473;28;19958;-68
2023/07/24 00:18:41;;;;;;;;;;;20.10;85.60;;;;;;5090643;28;19912;-68
2023/07/24 00:21:07;;;;;;;;;;;20.10;85.60;;;;;;5090778;28;19912;-68
2023/07/24 00:23:32;;;;;;;;;;;20.10;85.70;;;;;;5090058;28;19912;-68
2023/07/24 00:25:58;;;;;;;;;;;20.10;85.70;;;;;;5087457;28;19941;-69
2023/07/24 00:28:23;;;;;;;;;;;20.10;85.60;;;;;;5110642;28;19958;-68
2023/07/24 00:30:49;;;;;;;;;;;20.10;85.60;;;;;;5110744;28;19919;-69
2023/07/24 00:33:14;;;;;;;;;;;20.10;85.60;;;;;;5110743;28;19946;-68
2023/07/24 00:35:40;;;;;;;;;;;20.10;85.60;;;;;;5090222;28;19912;-68
2023/07/24 00:38:05;;;;;;;;;;;20.10;85.60;;;;;;5089546;28;20403;-68
2023/07/24 00:40:31;;;;;;;;;;;20.00;85.70;;;;;;5107347;28;19969;-68
2023/07/24 00:42:56;;;;;;;;;;;20.00;85.80;;;;;;5097438;28;20011;-68
2023/07/24 00:45:22;;;;;;;;;;;20.00;86.10;;;;;;5071289;28;19916;-68
2023/07/24 00:47:48;;;;;;;;;;;20.00;86.00;;;;;;5089884;28;19919;-68
2023/07/24 00:50:13;;;;;;;;;;;20.00;86.00;;;;;;5089857;28;19916;-69
2023/07/24 00:52:40;;;;;;;;;;;20.00;86.00;;;;;;5090032;28;19915;-68
2023/07/24 00:55:05;;;;;;;;;;;20.00;86.00;;;;;;5090058;28;19920;-68
2023/07/24 00:57:32;;;;;;;;;;;19.90;85.90;;;;;;5072029;28;19912;-68
2023/07/24 00:59:57;;;;;;;;;;;20.00;86.20;;;;;;5071446;28;19994;-68
2023/07/24 01:02:23;;;;;;;;;;;20.00;86.00;;;;;;5091067;28;20072;-68
2023/07/24 01:04:48;;;;;;;;;;;19.90;86.10;;;;;;5095234;28;19965;-68
2023/07/24 01:07:16;;;;;;;;;;;19.90;86.10;;;;;;5071291;28;19965;-68
2023/07/24 01:09:42;;;;;;;;;;;19.90;86.10;;;;;;5100953;28;19980;-68
2023/07/24 01:12:17;;;;;;;;;;;19.90;86.00;;;;;;5109361;28;19921;-68
2023/07/24 01:14:47;;;;;;;;;;;19.90;86.20;;;;;;5071909;28;19928;-68
2023/07/24 01:17:15;;;;;;;;;;;19.90;86.40;;;;;;5089038;28;19932;-68
2023/07/24 01:19:42;;;;;;;;;;;19.90;86.70;;;;;;5089006;28;20479;-68
2023/07/24 01:22:14;;;;;;;;;;;19.90;87.40;;;;;;5088965;28;19916;-68
2023/07/24 01:24:47;;;;;;;;;;;19.90;86.60;;;;;;5083646;28;19916;-68
2023/07/24 01:27:18;;;;;;;;;;;19.90;86.50;;;;;;5088810;28;19912;-68
2023/07/24 01:29:44;;;;;;;;;;;19.90;86.70;;;;;;5088786;28;19916;-68
2023/07/24 01:32:09;;;;;;;;;;;19.80;86.50;;;;;;5089217;28;19915;-68
2023/07/24 01:34:35;;;;;;;;;;;19.80;86.50;;;;;;5089199;28;19912;-68
2023/07/24 01:37:00;;;;;;;;;;;19.80;86.50;;;;;;5089095;28;19935;-68
2023/07/24 01:39:26;;;;;;;;;;;19.80;86.50;;;;;;5098454;28;20045;-68
2023/07/24 01:41:51;;;;;;;;;;;19.80;86.50;;;;;;5092758;28;19912;-68
2023/07/24 01:44:17;;;;;;;;;;;19.80;86.60;;;;;;5088620;28;19916;-68
2023/07/24 01:46:43;;;;;;;;;;;19.80;86.60;;;;;;5088857;28;19912;-68
2023/07/24 01:49:08;;;;;;;;;;;19.80;86.60;;;;;;5070881;28;20003;-69
2023/07/24 01:51:34;;;;;;;;;;;19.70;86.70;;;;;;5088762;28;19919;-68
2023/07/24 01:53:59;;;;;;;;;;;19.70;86.60;;;;;;5070643;28;19908;-68
2023/07/24 01:56:25;;;;;;;;;;;19.70;86.60;;;;;;5074158;28;19916;-68
2023/07/24 01:58:50;;;;;;;;;;;19.70;86.70;;;;;;5109285;28;19931;-69
2023/07/24 02:01:16;;;;;;;;;;;19.70;86.70;;;;;;5109178;28;19953;-68
2023/07/24 02:03:42;;;;;;;;;;;19.70;86.70;;;;;;5087175;28;19951;-68
2023/07/24 02:06:07;;;;;;;;;;;19.70;86.60;;;;;;5088380;28;19916;-68
2023/07/24 02:08:33;;;;;;;;;;;19.70;86.70;;;;;;5072251;28;19919;-68
2023/07/24 02:10:58;;;;;;;;;;;19.60;86.60;;;;;;5108848;28;20574;-68
2023/07/24 02:13:24;;;;;;;;;;;19.60;86.70;;;;;;5099831;28;19923;-68
2023/07/24 02:15:49;;;;;;;;;;;19.60;86.70;;;;;;5088163;28;19909;-68
2023/07/24 02:18:15;;;;;;;;;;;19.60;86.90;;;;;;5088760;28;19919;-68
2023/07/24 02:20:40;;;;;;;;;;;19.60;86.90;;;;;;5088523;28;20388;-68
2023/07/24 02:23:06;;;;;;;;;;;19.60;86.80;;;;;;5088459;28;20514;-68
2023/07/24 02:25:32;;;;;;;;;;;19.60;87.10;;;;;;5078494;28;19924;-68
2023/07/24 02:27:57;;;;;;;;;;;19.60;86.90;;;;;;5088558;28;20326;-68
2023/07/24 02:30:23;;;;;;;;;;;19.60;87.00;;;;;;5102245;28;19919;-68
2023/07/24 02:32:48;;;;;;;;;;;19.50;87.10;;;;;;5093560;28;20284;-68
2023/07/24 02:35:14;;;;;;;;;;;19.50;86.80;;;;;;5088296;28;19934;-68
2023/07/24 02:37:39;;;;;;;;;;;19.50;87.00;;;;;;5088475;28;19908;-68
2023/07/24 02:40:05;;;;;;;;;;;19.50;86.90;;;;;;5103057;28;20281;-68
2023/07/24 02:42:31;;;;;;;;;;;19.50;87.00;;;;;;5087033;28;19966;-68
2023/07/24 02:44:56;;;;;;;;;;;19.50;87.40;;;;;;5088567;28;19916;-68
2023/07/24 02:47:22;;;;;;;;;;;19.50;87.90;;;;;;5088037;28;19912;-68
2023/07/24 02:49:47;;;;;;;;;;;19.50;87.50;;;;;;5070168;28;19920;-68
2023/07/24 02:52:13;;;;;;;;;;;19.50;87.30;;;;;;5070023;28;19948;-68
2023/07/24 02:54:38;;;;;;;;;;;19.50;87.20;;;;;;5089283;28;19908;-68
2023/07/24 02:57:04;;;;;;;;;;;19.50;87.10;;;;;;5083066;28;19953;-68
2023/07/24 02:59:30;;;;;;;;;;;19.50;87.10;;;;;;5088121;28;20364;-68
2023/07/24 03:01:55;;;;;;;;;;;19.40;87.20;;;;;;5089322;28;20276;-69
2023/07/24 03:04:21;;;;;;;;;;;19.50;87.50;;;;;;5073667;28;20535;-68
2023/07/24 03:06:46;;;;;;;;;;;19.50;87.70;;;;;;5101089;28;19907;-69
2023/07/24 03:09:12;;;;;;;;;;;19.50;87.50;;;;;;5112164;28;19919;-68
2023/07/24 03:11:37;;;;;;;;;;;19.40;87.40;;;;;;5112366;28;20340;-69
2023/07/24 03:14:03;;;;;;;;;;;19.40;87.40;;;;;;5098343;28;19958;-68
2023/07/24 03:16:28;;;;;;;;;;;19.40;87.40;;;;;;5092892;28;19908;-68
2023/07/24 03:18:54;;;;;;;;;;;19.40;87.50;;;;;;5092037;28;19918;-68
2023/07/24 03:21:20;;;;;;;;;;;19.40;87.50;;;;;;5073683;28;20012;-68
2023/07/24 03:23:46;;;;;;;;;;;19.50;87.50;;;;;;5089589;28;19934;-68
2023/07/24 03:26:11;;;;;;;;;;;19.40;87.60;;;;;;5071172;28;20010;-68
2023/07/24 03:28:36;;;;;;;;;;;19.40;87.50;;;;;;5053409;28;19916;-68
2023/07/24 03:31:02;;;;;;;;;;;19.40;88.10;;;;;;5071256;28;20280;-68
2023/07/24 03:33:28;;;;;;;;;;;19.40;88.40;;;;;;5089365;28;19955;-68
2023/07/24 03:35:53;;;;;;;;;;;19.40;88.10;;;;;;5091400;28;19981;-68
2023/07/24 03:38:19;;;;;;;;;;;19.40;87.90;;;;;;5091383;28;19915;-68
2023/07/24 03:40:44;;;;;;;;;;;19.40;87.80;;;;;;5111609;28;19939;-68
2023/07/24 03:43:10;;;;;;;;;;;19.40;87.90;;;;;;5096881;28;19924;-68
2023/07/24 03:45:35;;;;;;;;;;;19.40;87.90;;;;;;5090514;28;19958;-68
2023/07/24 03:48:01;;;;;;;;;;;19.40;88.10;;;;;;5091327;28;19912;-69
2023/07/24 03:50:28;;;;;;;;;;;19.40;87.80;;;;;;5087904;28;19923;-68
2023/07/24 03:52:54;;;;;;;;;;;19.40;88.00;;;;;;5111594;28;19908;-69
2023/07/24 03:55:19;;;;;;;;;;;19.40;87.90;;;;;;5095552;28;19912;-68
2023/07/24 03:57:45;;;;;;;;;;;19.40;88.10;;;;;;5084611;28;20305;-69
2023/07/24 04:00:10;;;;;;;;;;;19.40;87.90;;;;;;5080932;28;20015;-69
2023/07/24 04:02:36;;;;;;;;;;;19.40;88.60;;;;;;5088844;28;19962;-68
2023/07/24 04:05:02;;;;;;;;;;;19.40;88.20;;;;;;5091030;28;20354;-68
2023/07/24 04:07:28;;;;;;;;;;;19.40;88.10;;;;;;5072837;28;19913;-69
2023/07/24 04:09:54;;;;;;;;;;;19.40;88.10;;;;;;5096508;28;19965;-68
2023/07/24 04:12:19;;;;;;;;;;;19.40;88.30;;;;;;5110885;28;19915;-69
2023/07/24 04:14:45;;;;;;;;;;;19.40;88.20;;;;;;5071313;28;19943;-69
2023/07/24 04:17:10;;;;;;;;;;;19.40;88.00;;;;;;5070379;28;19962;-68
2023/07/24 04:19:36;;;;;;;;;;;19.40;87.90;;;;;;5087756;28;19911;-69
2023/07/24 04:22:01;;;;;;;;;;;19.30;88.00;;;;;;5091802;28;19999;-69
2023/07/24 04:24:26;;;;;;;;;;;19.40;88.10;;;;;;5081960;28;19970;-69
2023/07/24 04:26:52;;;;;;;;;;;19.30;89.10;;;;;;5069583;28;19919;-69
2023/07/24 04:29:17;;;;;;;;;;;19.40;88.30;;;;;;5070066;28;19913;-69
2023/07/24 04:31:43;;;;;;;;;;;19.40;88.50;;;;;;5069874;28;19912;-68
2023/07/24 04:34:08;;;;;;;;;;;19.40;88.30;;;;;;5077179;28;19961;-68
2023/07/24 04:36:34;;;;;;;;;;;19.40;88.60;;;;;;5090560;28;19912;-68
2023/07/24 04:38:59;;;;;;;;;;;19.40;88.50;;;;;;5095872;28;19919;-68
2023/07/24 04:41:25;;;;;;;;;;;19.40;88.40;;;;;;5110541;28;19950;-68
2023/07/24 04:43:50;;;;;;;;;;;19.40;88.70;;;;;;5089351;28;19957;-68
2023/07/24 04:46:16;;;;;;;;;;;19.40;89.10;;;;;;5089415;28;19912;-68
2023/07/24 04:48:41;;;;;;;;;;;19.40;88.60;;;;;;5090178;28;19937;-68
2023/07/24 04:51:07;;;;;;;;;;;19.40;88.60;;;;;;5090016;28;19954;-68
2023/07/24 04:53:32;;;;;;;;;;;19.40;89.00;;;;;;5090347;28;19951;-68
2023/07/24 04:55:58;;;;;;;;;;;19.30;88.70;;;;;;5080266;28;20006;-69
2023/07/24 04:58:24;;;;;;;;;;;19.40;88.60;;;;;;5089832;28;19944;-68
2023/07/24 05:00:49;;;;;;;;;;;19.40;88.70;;;;;;5089791;28;19923;-68
2023/07/24 05:03:17;;;;;;;;;;;19.40;88.80;;;;;;5099261;28;19946;-69
2023/07/24 05:05:42;;;;;;;;;;;19.40;88.80;;;;;;5075224;28;20015;-68
2023/07/24 05:08:08;;;;;;;;;;;19.40;89.40;;;;;;5089763;28;19999;-68
2023/07/24 05:10:36;;;;;;;;;;;19.40;89.70;;;;;;5075618;28;20420;-68
2023/07/24 05:13:01;;;;;;;;;;;19.30;88.90;;;;;;5083820;28;19919;-68
2023/07/24 05:15:27;;;;;;;;;;;19.40;89.20;;;;;;5068683;28;19916;-68
2023/07/24 05:17:52;;;;;;;;;;;19.40;88.70;;;;;;5069174;28;19961;-68
2023/07/24 05:20:18;;;;;;;;;;;19.40;89.00;;;;;;5069098;28;19912;-68
2023/07/24 05:22:44;;;;;;;;;;;19.40;89.20;;;;;;5069010;28;19917;-68
2023/07/24 05:25:09;;;;;;;;;;;19.40;89.60;;;;;;5083109;28;19920;-68
2023/07/24 05:27:36;;;;;;;;;;;19.40;89.40;;;;;;5070657;28;19916;-69
2023/07/24 05:30:01;;;;;;;;;;;19.40;89.80;;;;;;5089119;28;19923;-69
2023/07/24 05:32:27;;;;;;;;;;;19.40;89.80;;;;;;5089089;28;20559;-69
2023/07/24 05:34:52;;;;;;;;;;;19.50;89.60;;;;;;5088826;28;19958;-69
2023/07/24 05:37:18;;;;;;;;;;;19.40;90.00;;;;;;5088846;28;19913;-68
2023/07/24 05:39:43;;;;;;;;;;;19.40;90.10;;;;;;5099343;28;19966;-69
2023/07/24 05:42:10;;;;;;;;;;;19.50;90.00;;;;;;5099136;28;19916;-69
2023/07/24 05:44:37;;;;;;;;;;;19.40;90.10;;;;;;5083234;28;20006;-69
2023/07/24 05:47:02;;;;;;;;;;;19.50;89.80;;;;;;5088541;28;20685;-69
2023/07/24 05:49:28;;;;;;;;;;;19.50;90.30;;;;;;5088876;28;19920;-69
2023/07/24 05:51:54;;;;;;;;;;;19.50;90.10;;;;;;5070552;28;20003;-69
2023/07/24 05:54:19;;;;;;;;;;;19.50;90.30;;;;;;5070986;28;19908;-69
2023/07/24 05:56:45;;;;;;;;;;;19.50;90.20;;;;;;5088330;28;20372;-68
2023/07/24 05:59:10;;;;;;;;;;;19.50;90.30;;;;;;5090034;28;20653;-69
2023/07/24 06:01:35;;;;;;;;;;;19.50;90.20;;;;;;5088859;28;19923;-69
2023/07/24 06:04:01;;;;;;;;;;;19.50;90.20;;;;;;5088718;28;19999;-69
2023/07/24 06:06:28;;;;;;;;;;;19.60;90.20;;;;;;5088584;28;19972;-68
2023/07/24 06:08:53;;;;;;;;;;;19.60;90.50;;;;;;5093030;28;19914;-68
2023/07/24 06:11:18;;;;;;;;;;;19.60;90.80;;;;;;5108918;28;19911;-69
2023/07/24 06:13:44;;;;;;;;;;;19.60;90.50;;;;;;5089507;28;19908;-69
2023/07/24 06:16:10;;;;;;;;;;;19.60;90.70;;;;;;5088325;28;19916;-68
2023/07/24 06:18:35;;;;;;;;;;;19.60;90.30;;;;;;5088770;28;19912;-68
2023/07/24 06:21:01;;;;;;;;;;;19.60;90.40;;;;;;5088488;28;19912;-69
2023/07/24 06:23:27;;;;;;;;;;;19.60;90.30;;;;;;5088737;28;19918;-69
2023/07/24 06:25:53;;;;;;;;;;;19.70;90.50;;;;;;5068244;28;19920;-69
2023/07/24 06:28:19;;;;;;;;;;;19.70;90.20;;;;;;5068485;28;19920;-68
2023/07/24 06:30:44;;;;;;;;;;;19.70;90.80;;;;;;5079768;28;19920;-69
2023/07/24 06:33:10;;;;;;;;;;;19.70;90.40;;;;;;5088565;28;19912;-69
2023/07/24 06:35:35;;;;;;;;;;;19.70;90.30;;;;;;5088194;28;19916;-69
2023/07/24 06:38:01;;;;;;;;;;;19.80;90.50;;;;;;5091047;28;19977;-69
2023/07/24 06:40:26;;;;;;;;;;;19.80;90.60;;;;;;5109958;28;20127;-69
2023/07/24 06:42:52;;;;;;;;;;;19.80;90.40;;;;;;5089551;28;19959;-69
2023/07/24 06:45:18;;;;;;;;;;;19.70;90.40;;;;;;5091741;28;19912;-69
2023/07/24 06:47:43;;;;;;;;;;;19.80;90.20;;;;;;5092389;28;19919;-69
2023/07/24 06:50:09;;;;;;;;;;;19.80;90.40;;;;;;5092149;28;19923;-69
2023/07/24 06:52:35;;;;;;;;;;;19.90;90.50;;;;;;5092335;28;19995;-69
2023/07/24 06:55:00;;;;;;;;;;;19.90;90.50;;;;;;5091472;28;20026;-69
2023/07/24 06:57:26;;;;;;;;;;;19.90;90.40;;;;;;5101184;28;20022;-69
2023/07/24 06:59:51;;;;;;;;;;;20.00;90.70;;;;;;5108900;28;19978;-69
2023/07/24 07:02:17;;;;;;;;;;;20.00;91.00;;;;;;5073764;28;20019;-69
2023/07/24 07:04:42;;;;;;;;;;;20.00;90.50;;;;;;5092160;28;19919;-69
2023/07/24 07:07:08;;;;;;;;;;;20.00;90.40;;;;;;5091597;28;19919;-69
2023/07/24 07:09:33;;;;;;;;;;;20.10;91.00;;;;;;5097909;28;19927;-69
2023/07/24 07:11:59;;;;;;;;;;;20.10;90.70;;;;;;5097699;28;19915;-69
2023/07/24 07:14:24;;;;;;;;;;;20.10;90.50;;;;;;5098718;28;19941;-69
2023/07/24 07:16:50;;;;;;;;;;;20.20;90.40;;;;;;5111926;28;19957;-68
2023/07/24 07:19:15;;;;;;;;;;;20.20;91.10;;;;;;5112213;28;19911;-68
2023/07/24 07:21:41;;;;;;;;;;;20.20;90.40;;;;;;5112317;28;20386;-69
2023/07/24 07:24:06;;;;;;;;;;;20.20;90.90;;;;;;5106963;28;19920;-69
2023/07/24 07:26:33;;;;;;;;;;;20.20;91.10;;;;;;5091505;28;19941;-70
2023/07/24 07:28:58;;;;;;;;;;;20.20;90.50;;;;;;5099530;28;19915;-70
2023/07/24 07:31:24;;;;;;;;;;;20.20;90.80;;;;;;5111950;28;19957;-68
2023/07/24 07:33:49;;;;;;;;;;;20.20;90.90;;;;;;5107465;28;19912;-69
2023/07/24 07:36:15;;;;;;;;;;;20.20;90.60;;;;;;5072882;28;19916;-69
2023/07/24 07:38:40;;;;;;;;;;;20.20;90.20;;;;;;5094161;28;19985;-69
2023/07/24 07:41:06;;;;;;;;;;;20.20;90.30;;;;;;5093461;28;20022;-68
2023/07/24 07:43:31;;;;;;;;;;;20.30;90.70;;;;;;5093979;28;19912;-68
2023/07/24 07:45:59;;;;;;;;;;;20.30;90.30;;;;;;5091755;28;19942;-69
2023/07/24 07:48:24;;;;;;;;;;;20.30;90.80;;;;;;5101344;28;19920;-69
2023/07/24 07:50:51;;;;;;;;;;;20.30;90.20;;;;;;5093060;28;19922;-68
2023/07/24 07:53:16;;;;;;;;;;;20.30;90.30;;;;;;5111483;28;19947;-69
2023/07/24 07:55:42;;;;;;;;;;;20.20;90.20;;;;;;5092436;28;19944;-69
2023/07/24 07:58:07;;;;;;;;;;;20.20;90.60;;;;;;5091424;28;20433;-68
2023/07/24 08:00:33;;;;;;;;;;;20.20;90.30;;;;;;5092789;28;19938;-68
2023/07/24 08:02:58;;;;;;;;;;;20.20;90.20;;;;;;5111549;28;19916;-68
2023/07/24 08:05:24;;;;;;;;;;;20.20;90.50;;;;;;5074935;28;20350;-69
2023/07/24 08:07:49;;;;;;;;;;;20.20;90.20;;;;;;5091019;28;20002;-69
2023/07/24 08:10:16;;;;;;;;;;;20.30;90.20;;;;;;5106626;28;19912;-68
2023/07/24 08:12:42;;;;;;;;;;;20.30;90.20;;;;;;5108604;28;19916;-68
2023/07/24 08:15:08;;;;;;;;;;;20.30;90.40;;;;;;5090672;28;19969;-69
2023/07/24 08:17:33;;;;;;;;;;;20.40;90.20;;;;;;5102495;28;19916;-69
2023/07/24 08:19:59;;;;;;;;;;;20.40;90.80;;;;;;5111147;28;19974;-70
2023/07/24 08:22:24;;;;;;;;;;;20.50;90.50;;;;;;5111191;28;19912;-69
2023/07/24 08:24:51;;;;;;;;;;;20.50;90.30;;;;;;5099199;28;20003;-68
2023/07/24 08:27:16;;;;;;;;;;;20.60;90.60;;;;;;5090513;28;19912;-69
2023/07/24 08:29:42;;;;;;;;;;;20.60;90.80;;;;;;5090200;28;19923;-69
2023/07/24 08:32:07;;;;;;;;;;;20.70;90.40;;;;;;5090795;28;19915;-69
2023/07/24 08:34:33;;;;;;;;;;;20.70;90.60;;;;;;5091495;28;20353;-69
2023/07/24 08:36:58;;;;;;;;;;;20.80;90.10;;;;;;5090258;28;19919;-69
2023/07/24 08:39:24;;;;;;;;;;;20.80;90.00;;;;;;5080899;28;19916;-69
2023/07/24 08:41:49;;;;;;;;;;;20.90;90.00;;;;;;5110343;28;19919;-69
2023/07/24 08:44:15;;;;;;;;;;;21.00;90.40;;;;;;5086425;28;20356;-69
2023/07/24 08:46:45;;;;;;;;;;;20.90;90.20;;;;;;5089727;28;19951;-69
2023/07/24 08:49:11;;;;;;;;;;;20.90;90.20;;;;;;5098058;28;19969;-69
2023/07/24 08:51:37;;;;;;;;;;;20.90;90.10;;;;;;5099003;28;20011;-69
2023/07/24 08:54:03;;;;;;;;;;;20.90;90.00;;;;;;5089985;28;20007;-69
2023/07/24 08:56:29;;;;;;;;;;;20.90;90.30;;;;;;5071478;28;19953;-69
2023/07/24 08:58:55;;;;;;;;;;;20.90;90.10;;;;;;5089825;28;19908;-69
2023/07/24 09:01:20;;;;;;;;;;;20.90;90.10;;;;;;5089397;28;20091;-69
2023/07/24 09:03:46;;;;;;;;;;;20.90;90.00;;;;;;5090075;28;19917;-69
2023/07/24 09:06:11;;;;;;;;;;;20.90;89.90;;;;;;5089956;28;19919;-69
2023/07/24 09:08:40;;;;;;;;;;;20.80;90.00;;;;;;5091056;28;19912;-69
2023/07/24 09:11:06;;;;;;;;;;;20.90;90.00;;;;;;5108059;28;19916;-69
2023/07/24 09:13:35;;;;;;;;;;;20.80;89.80;;;;;;5100119;28;19912;-69
2023/07/24 09:16:01;;;;;;;;;;;20.80;90.00;;;;;;5089186;28;20378;-69
2023/07/24 09:18:26;;;;;;;;;;;20.80;89.90;;;;;;5089830;28;19912;-69
2023/07/24 09:20:52;;;;;;;;;;;20.80;89.90;;;;;;5090716;28;19916;-69
2023/07/24 09:23:25;;;;;;;;;;;20.80;89.70;;;;;;5089520;28;20369;-69
2023/07/24 09:25:51;;;;;;;;;;;20.80;89.50;;;;;;5072328;28;20007;-69
2023/07/24 09:28:20;;;;;;;;;;;20.90;89.90;;;;;;5109102;28;20002;-69
2023/07/24 09:30:53;;;;;;;;;;;20.90;89.80;;;;;;5091228;28;19951;-69
2023/07/24 09:33:19;;;;;;;;;;;20.90;89.80;;;;;;5109526;28;19953;-69
2023/07/24 09:35:44;;;;;;;;;;;20.90;90.00;;;;;;5089394;28;19909;-69
2023/07/24 09:38:11;;;;;;;;;;;20.90;89.50;;;;;;5105940;28;19919;-69
2023/07/24 09:40:41;;;;;;;;;;;20.90;89.50;;;;;;5109014;28;19916;-69
2023/07/24 09:43:15;;;;;;;;;;;20.90;89.30;;;;;;5099597;28;19920;-69
2023/07/24 09:45:41;;;;;;;;;;;20.90;89.50;;;;;;5088227;28;19966;-69
2023/07/24 09:48:11;;;;;;;;;;;20.90;89.30;;;;;;5089246;28;19912;-69
2023/07/24 09:50:36;;;;;;;;;;;20.90;89.30;;;;;;5088822;28;19970;-68
2023/07/24 09:53:04;;;;;;;;;;;20.90;89.40;;;;;;5095491;28;20517;-69
2023/07/24 09:55:36;;;;;;;;;;;20.90;89.30;;;;;;5073963;28;20345;-69
2023/07/24 09:58:02;;;;;;;;;;;20.90;89.90;;;;;;5084447;28;19923;-69
2023/07/24 10:00:28;;;;;;;;;;;20.90;89.90;;;;;;5061109;28;19912;-69
2023/07/24 10:02:53;;;;;;;;;;;20.90;89.40;;;;;;5085037;28;19912;-68
2023/07/24 10:05:19;;;;;;;;;;;20.90;89.20;;;;;;5069934;28;20032;-68
2023/07/24 10:07:44;;;;;;;;;;;20.90;89.30;;;;;;5074577;28;19959;-68
2023/07/24 10:10:10;;;;;;;;;;;20.90;89.30;;;;;;5097994;28;19915;-68
2023/07/24 10:12:36;;;;;;;;;;;20.90;89.40;;;;;;5103831;28;19961;-68
2023/07/24 10:15:02;;;;;;;;;;;20.80;89.70;;;;;;5068412;28;19913;-68
2023/07/24 10:17:37;;;;;;;;;;;20.80;89.80;;;;;;5068103;28;19966;-68
2023/07/24 10:20:07;;;;;;;;;;;20.80;89.80;;;;;;5068270;28;19959;-68
2023/07/24 10:22:32;;;;;;;;;;;20.80;89.60;;;;;;5068316;28;19930;-68
2023/07/24 10:24:58;;;;;;;;;;;20.80;89.40;;;;;;5061350;28;19928;-68
2023/07/24 10:27:24;;;;;;;;;;;20.80;89.90;;;;;;5067912;28;19939;-68
2023/07/24 10:30:03;;;;;;;;;;;20.90;89.80;;;;;;5068163;28;19923;-68
2023/07/24 10:32:29;;;;;;;;;;;20.90;90.10;;;;;;5049994;28;19955;-69
2023/07/24 10:35:07;;;;;;;;;;;21.00;89.80;;;;;;5081884;28;19956;-69
2023/07/24 10:37:34;;;;;;;;;;;21.00;90.00;;;;;;5088582;28;19913;-69
2023/07/24 10:40:00;;;;;;;;;;;21.10;90.00;;;;;;5102221;28;19915;-69
2023/07/24 10:42:25;;;;;;;;;;;21.10;90.10;;;;;;5070383;28;19916;-68
2023/07/24 10:45:01;;;;;;;;;;;21.10;90.10;;;;;;5084334;28;19912;-68
2023/07/24 10:47:27;;;;;;;;;;;21.20;89.70;;;;;;5088064;28;19916;-69
2023/07/24 10:49:52;;;;;;;;;;;21.30;89.70;;;;;;5087988;28;19985;-69
2023/07/24 10:52:26;;;;;;;;;;;21.30;89.50;;;;;;5087798;28;19944;-69
2023/07/24 10:54:52;;;;;;;;;;;21.40;89.50;;;;;;5070081;28;19919;-69
2023/07/24 10:57:24;;;;;;;;;;;21.40;89.70;;;;;;5088840;28;20565;-69
2023/07/24 10:59:50;;;;;;;;;;;21.50;89.70;;;;;;5088227;28;19944;-69
2023/07/24 11:02:16;;;;;;;;;;;21.60;89.60;;;;;;5069854;28;19947;-69
2023/07/24 11:04:42;;;;;;;;;;;21.60;89.10;;;;;;5088046;28;19912;-70
2023/07/24 11:07:07;;;;;;;;;;;21.70;88.90;;;;;;5087876;28;20353;-69
2023/07/24 11:09:37;;;;;;;;;;;21.70;89.50;;;;;;5098249;28;20347;-69
2023/07/24 11:12:15;;;;;;;;;;;21.70;89.20;;;;;;5105065;28;20521;-70
2023/07/24 11:14:48;;;;;;;;;;;21.70;89.30;;;;;;5070171;28;19916;-69
2023/07/24 11:17:13;;;;;;;;;;;21.60;89.50;;;;;;5086155;28;19938;-69
2023/07/24 11:19:39;;;;;;;;;;;21.60;89.60;;;;;;5088539;28;19912;-69
2023/07/24 11:22:04;;;;;;;;;;;21.60;89.40;;;;;;5080031;28;19915;-68
2023/07/24 11:24:30;;;;;;;;;;;21.60;89.80;;;;;;5077600;28;20398;-68
2023/07/24 11:26:55;;;;;;;;;;;21.60;89.90;;;;;;5083924;28;19922;-69
2023/07/24 11:29:21;;;;;;;;;;;21.70;89.90;;;;;;5083652;28;19995;-69
2023/07/24 11:31:52;;;;;;;;;;;21.60;90.00;;;;;;5083264;28;19916;-69
2023/07/24 11:34:18;;;;;;;;;;;21.70;90.00;;;;;;5084145;28;20629;-69
2023/07/24 11:36:43;;;;;;;;;;;21.70;89.80;;;;;;5083580;28;20011;-69
2023/07/24 11:39:09;;;;;;;;;;;21.60;89.90;;;;;;5098666;28;19972;-69
2023/07/24 11:41:34;;;;;;;;;;;21.60;90.10;;;;;;5090630;28;19919;-69
2023/07/24 11:44:00;;;;;;;;;;;21.60;89.70;;;;;;5090649;28;19912;-69
2023/07/24 11:46:26;;;;;;;;;;;21.50;89.30;;;;;;5090235;28;19912;-69
2023/07/24 11:48:53;;;;;;;;;;;21.50;89.40;;;;;;5090827;28;19908;-69
2023/07/24 11:51:19;;;;;;;;;;;21.50;89.40;;;;;;5090556;28;19920;-69
2023/07/24 11:53:44;;;;;;;;;;;21.40;89.70;;;;;;5090677;28;19912;-69
2023/07/24 11:56:14;;;;;;;;;;;21.40;90.00;;;;;;5078529;28;19912;-69
2023/07/24 11:58:40;;;;;;;;;;;21.40;90.10;;;;;;5090613;28;19908;-69
2023/07/24 12:01:05;;;;;;;;;;;21.30;90.20;;;;;;5090143;28;19912;-69
2023/07/24 12:03:31;;;;;;;;;;;21.30;90.10;;;;;;5090168;28;19912;-68
2023/07/24 12:05:57;;;;;;;;;;;21.30;90.50;;;;;;5089881;28;19912;-68
2023/07/24 12:08:33;;;;;;;;;;;21.20;90.10;;;;;;5090604;28;19912;-68
2023/07/24 12:10:58;;;;;;;;;;;21.20;90.20;;;;;;5110472;28;19958;-67
2023/07/24 12:13:24;;;;;;;;;;;21.20;90.20;;;;;;5098495;28;19912;-68
2023/07/24 12:15:49;;;;;;;;;;;21.10;90.20;;;;;;5089058;28;19919;-68
2023/07/24 12:18:15;;;;;;;;;;;21.10;90.10;;;;;;5090074;28;19915;-68
2023/07/24 12:20:40;;;;;;;;;;;21.00;90.30;;;;;;5089671;28;19920;-68
2023/07/24 12:23:06;;;;;;;;;;;21.00;90.30;;;;;;5089876;28;20647;-68
2023/07/24 12:25:31;;;;;;;;;;;20.90;90.40;;;;;;5089250;28;19920;-68
2023/07/24 12:27:57;;;;;;;;;;;20.90;90.50;;;;;;5090005;28;19912;-68
2023/07/24 12:30:23;;;;;;;;;;;20.80;90.40;;;;;;5071509;28;19916;-68
2023/07/24 12:32:48;;;;;;;;;;;20.80;90.40;;;;;;5071286;28;19943;-68
2023/07/24 12:35:14;;;;;;;;;;;20.80;90.40;;;;;;5089366;28;19912;-68
2023/07/24 12:37:40;;;;;;;;;;;20.70;90.40;;;;;;5074095;28;19923;-68
2023/07/24 12:40:06;;;;;;;;;;;20.70;90.30;;;;;;5093943;28;19920;-68
2023/07/24 12:42:32;;;;;;;;;;;20.70;90.30;;;;;;5089233;28;20331;-68
2023/07/24 12:44:57;;;;;;;;;;;20.70;90.50;;;;;;5094289;28;19915;-68
2023/07/24 12:47:23;;;;;;;;;;;20.70;90.30;;;;;;5078514;28;19948;-68
2023/07/24 12:49:49;;;;;;;;;;;20.70;90.20;;;;;;5089297;28;20007;-68
2023/07/24 12:52:14;;;;;;;;;;;20.70;90.30;;;;;;5089151;28;19923;-68
2023/07/24 12:54:40;;;;;;;;;;;20.70;90.20;;;;;;5089378;28;19959;-68
2023/07/24 12:57:05;;;;;;;;;;;20.70;90.30;;;;;;5086899;28;19915;-68
2023/07/24 12:59:31;;;;;;;;;;;20.70;90.20;;;;;;5083599;28;19931;-68
2023/07/24 13:01:56;;;;;;;;;;;20.80;90.20;;;;;;5084839;28;19912;-68
2023/07/24 13:04:22;;;;;;;;;;;20.80;90.20;;;;;;5086696;28;20121;-68
2023/07/24 13:06:48;;;;;;;;;;;20.90;90.10;;;;;;5089161;28;20744;-68
2023/07/24 13:09:13;;;;;;;;;;;21.10;90.00;;;;;;5096145;28;19907;-68
2023/07/24 13:11:39;;;;;;;;;;;21.20;89.70;;;;;;5107725;28;19922;-68
2023/07/24 13:14:04;;;;;;;;;;;21.30;89.80;;;;;;5088187;28;20004;-68
2023/07/24 13:16:30;;;;;;;;;;;21.40;89.40;;;;;;5069849;28;20607;-69
2023/07/24 13:18:55;;;;;;;;;;;21.50;89.30;;;;;;5086745;28;19950;-69
2023/07/24 13:21:21;;;;;;;;;;;21.60;89.10;;;;;;5088516;28;19919;-69
2023/07/24 13:23:46;;;;;;;;;;;21.70;88.90;;;;;;5088290;28;19953;-69
2023/07/24 13:26:12;;;;;;;;;;;21.80;88.70;;;;;;5087830;28;19912;-69
2023/07/24 13:28:38;;;;;;;;;;;21.80;88.80;;;;;;5088738;28;19912;-70
2023/07/24 13:31:11;;;;;;;;;;;21.80;88.70;;;;;;5087407;28;20542;-70
2023/07/24 13:33:37;;;;;;;;;;;21.90;88.50;;;;;;5070490;28;19916;-70
2023/07/24 13:36:03;;;;;;;;;;;22.00;88.60;;;;;;5088260;28;20618;-69
2023/07/24 13:38:28;;;;;;;;;;;22.20;88.40;;;;;;5089765;28;19915;-69
2023/07/24 13:40:54;;;;;;;;;;;22.30;88.60;;;;;;5089281;28;19923;-69
2023/07/24 13:43:19;;;;;;;;;;;22.40;88.70;;;;;;5082360;28;19912;-69
2023/07/24 13:45:45;;;;;;;;;;;22.50;88.40;;;;;;5087449;28;19912;-69
2023/07/24 13:48:10;;;;;;;;;;;22.60;88.10;;;;;;5088851;28;20250;-69
2023/07/24 13:50:35;;;;;;;;;;;22.60;88.40;;;;;;5089087;28;19916;-70
2023/07/24 13:53:01;;;;;;;;;;;22.60;88.50;;;;;;5089265;28;19951;-69
2023/07/24 13:55:26;;;;;;;;;;;22.70;88.30;;;;;;5088790;28;20312;-69
2023/07/24 13:57:52;;;;;;;;;;;22.80;88.20;;;;;;5088974;28;19919;-69
2023/07/24 14:00:17;;;;;;;;;;;22.90;88.60;;;;;;5088965;28;19918;-69
2023/07/24 14:02:43;;;;;;;;;;;22.90;88.40;;;;;;5070940;28;19915;-69
2023/07/24 14:05:08;;;;;;;;;;;23.10;88.00;;;;;;5088955;28;19915;-70
2023/07/24 14:07:34;;;;;;;;;;;23.10;87.90;;;;;;5088945;28;20269;-69
2023/07/24 14:09:59;;;;;;;;;;;23.30;87.90;;;;;;5102602;28;19919;-69